createdAt,value
2018-02-14T00:00:04.248Z,-3.50
2018-02-14T00:02:31.754Z,-3.50
2018-02-14T00:05:00.069Z,-3.50
2018-02-14T00:07:27.547Z,-3.50
2018-02-14T00:09:55.038Z,-3.40
2018-02-14T00:12:22.543Z,-3.40
2018-02-14T00:14:50.268Z,-3.40
2018-02-14T00:17:20.250Z,-3.30
2018-02-14T00:19:47.961Z,-3.40
2018-02-14T00:22:15.470Z,-3.40
2018-02-14T00:24:42.954Z,-3.40
2018-02-14T00:27:11.283Z,-3.50
2018-02-14T00:29:38.818Z,-3.50
2018-02-14T00:32:06.364Z,-3.60
2018-02-14T00:34:34.707Z,-3.60
2018-02-14T00:37:02.312Z,-3.60
2018-02-14T00:39:29.831Z,-3.60
2018-02-14T00:41:57.363Z,-3.60
2018-02-14T00:44:25.651Z,-3.60
2018-02-14T00:46:53.179Z,-3.60
2018-02-14T00:49:20.694Z,-3.70
2018-02-14T00:51:48.224Z,-3.70
2018-02-14T00:54:15.742Z,-3.80
2018-02-14T00:56:43.255Z,-3.60
2018-02-14T00:59:10.806Z,-3.70
2018-02-14T01:01:38.332Z,-3.80
2018-02-14T01:04:05.876Z,-3.90
2018-02-14T01:06:33.427Z,-3.90
2018-02-14T01:09:00.965Z,-3.90
2018-02-14T01:11:28.526Z,-4.00
2018-02-14T01:13:56.842Z,-4.20
2018-02-14T01:16:24.338Z,-4.10
2018-02-14T01:18:52.085Z,-4.10
2018-02-14T01:21:19.574Z,-4.30
2018-02-14T01:23:47.865Z,-4.50
2018-02-14T01:26:16.123Z,-4.50
2018-02-14T01:28:44.378Z,-4.50
2018-02-14T01:31:12.658Z,-4.50
2018-02-14T01:33:40.190Z,-4.60
2018-02-14T01:36:07.716Z,-4.50
2018-02-14T01:38:35.283Z,-4.40
2018-02-14T01:41:02.792Z,-4.40
2018-02-14T01:43:30.317Z,-4.40
2018-02-14T01:45:57.949Z,-4.40
2018-02-14T01:48:25.480Z,-4.40
2018-02-14T01:50:52.999Z,-4.40
2018-02-14T01:53:20.509Z,-4.50
2018-02-14T01:55:48.857Z,-4.40
2018-02-14T01:58:16.420Z,-4.40
2018-02-14T02:00:44.694Z,-4.40
2018-02-14T02:03:12.216Z,-4.40
2018-02-14T02:05:39.831Z,-4.50
2018-02-14T02:08:07.373Z,-4.50
2018-02-14T02:10:34.911Z,-4.50
2018-02-14T02:13:02.440Z,-4.50
2018-02-14T02:15:29.962Z,-4.70
2018-02-14T02:17:57.519Z,-4.60
2018-02-14T02:20:25.038Z,-4.60
2018-02-14T02:22:52.545Z,-4.60
2018-02-14T02:25:20.068Z,-4.60
2018-02-14T02:27:48.367Z,-4.50
2018-02-14T02:30:15.888Z,-4.60
2018-02-14T02:32:43.641Z,-4.60
2018-02-14T02:35:11.935Z,-4.60
2018-02-14T02:37:39.479Z,-4.50
2018-02-14T02:40:18.918Z,-4.60
2018-02-14T02:42:46.428Z,-4.50
2018-02-14T02:45:13.915Z,-4.70
2018-02-14T02:47:41.418Z,-4.70
2018-02-14T02:50:08.934Z,-4.80
2018-02-14T02:52:36.412Z,-4.80
2018-02-14T02:55:03.924Z,-4.80
2018-02-14T02:57:31.449Z,-4.70
2018-02-14T02:59:58.943Z,-4.70
2018-02-14T03:02:27.220Z,-4.80
2018-02-14T03:04:55.474Z,-4.80
2018-02-14T03:07:22.987Z,-4.90
2018-02-14T03:09:50.483Z,-4.80
2018-02-14T03:12:18.805Z,-4.90
2018-02-14T03:14:46.313Z,-4.90
2018-02-14T03:17:13.799Z,-4.80
2018-02-14T03:19:41.314Z,-4.80
2018-02-14T03:22:08.798Z,-4.80
2018-02-14T03:24:36.286Z,-4.70
2018-02-14T03:27:04.572Z,-4.70
2018-02-14T03:29:32.080Z,-4.80
2018-02-14T03:31:59.582Z,-4.80
2018-02-14T03:34:27.053Z,-4.90
2018-02-14T03:36:54.539Z,-4.90
2018-02-14T03:39:22.046Z,-4.90
2018-02-14T03:41:50.305Z,-4.80
2018-02-14T03:44:18.575Z,-4.90
2018-02-14T03:46:46.059Z,-4.90
2018-02-14T03:49:13.552Z,-4.90
2018-02-14T03:51:41.046Z,-4.90
2018-02-14T03:54:08.539Z,-5.00
2018-02-14T03:56:36.068Z,-5.00
2018-02-14T03:59:03.564Z,-5.00
2018-02-14T04:01:31.061Z,-5.10
2018-02-14T04:03:59.527Z,-5.20
2018-02-14T04:06:27.002Z,-5.30
2018-02-14T04:08:54.508Z,-5.30
2018-02-14T04:11:22.014Z,-5.20
2018-02-14T04:13:49.517Z,-5.20
2018-02-14T04:16:17.039Z,-5.20
2018-02-14T04:18:44.534Z,-5.00
2018-02-14T04:21:12.051Z,-5.00
2018-02-14T04:23:39.529Z,-4.90
2018-02-14T04:26:07.803Z,-4.70
2018-02-14T04:28:36.061Z,-4.60
2018-02-14T04:31:03.563Z,-4.60
2018-02-14T04:33:31.058Z,-4.60
2018-02-14T04:35:58.566Z,-4.50
2018-02-14T04:38:26.070Z,-4.60
2018-02-14T04:40:54.693Z,-4.60
2018-02-14T04:43:22.164Z,-4.60
2018-02-14T04:45:49.664Z,-4.60
2018-02-14T04:48:17.166Z,-4.50
2018-02-14T04:50:44.654Z,-4.60
2018-02-14T04:53:12.144Z,-4.60
2018-02-14T04:55:39.626Z,-4.60
2018-02-14T04:58:07.111Z,-4.60
2018-02-14T05:00:34.627Z,-4.60
2018-02-14T05:03:02.140Z,-4.60
2018-02-14T05:05:29.629Z,-4.60
2018-02-14T05:07:57.132Z,-4.60
2018-02-14T05:10:25.404Z,-4.60
2018-02-14T05:12:53.688Z,-4.50
2018-02-14T05:15:21.181Z,-4.50
2018-02-14T05:17:48.739Z,-4.50
2018-02-14T05:20:16.219Z,-4.60
2018-02-14T05:22:43.706Z,-4.60
2018-02-14T05:25:11.484Z,-4.70
2018-02-14T05:27:39.006Z,-4.70
2018-02-14T05:30:06.509Z,-4.70
2018-02-14T05:32:33.990Z,-4.80
2018-02-14T05:35:01.535Z,-4.80
2018-02-14T05:37:29.044Z,-4.70
2018-02-14T05:39:56.899Z,-4.70
2018-02-14T05:42:24.431Z,-4.60
2018-02-14T05:44:52.756Z,-4.70
2018-02-14T05:47:20.224Z,-4.60
2018-02-14T05:49:48.495Z,-4.50
2018-02-14T05:52:15.995Z,-4.60
2018-02-14T05:54:43.520Z,-4.50
2018-02-14T05:57:11.782Z,-4.60
2018-02-14T05:59:39.375Z,-4.60
2018-02-14T06:02:06.941Z,-4.60
2018-02-14T06:04:34.451Z,-4.60
2018-02-14T06:07:01.963Z,-4.60
2018-02-14T06:09:29.482Z,-4.70
2018-02-14T06:11:57.760Z,-4.70
2018-02-14T06:14:25.260Z,-4.70
2018-02-14T06:16:52.791Z,-4.80
2018-02-14T06:19:20.304Z,-4.80
2018-02-14T06:21:47.788Z,-4.80
2018-02-14T06:24:15.281Z,-4.80
2018-02-14T06:26:42.778Z,-4.80
2018-02-14T06:29:10.284Z,-4.80
2018-02-14T06:31:38.564Z,-5.00
2018-02-14T06:34:06.077Z,-4.90
2018-02-14T06:36:33.644Z,-4.90
2018-02-14T06:39:01.172Z,-4.90
2018-02-14T06:41:28.708Z,-5.00
2018-02-14T06:43:56.220Z,-5.00
2018-02-14T06:46:23.758Z,-5.00
2018-02-14T06:48:51.246Z,-5.00
2018-02-14T06:51:19.062Z,-5.10
2018-02-14T06:53:46.555Z,-5.10
2018-02-14T06:56:14.052Z,-5.00
2018-02-14T06:58:41.590Z,-5.00
2018-02-14T07:01:09.128Z,-4.90
2018-02-14T07:03:36.689Z,-5.00
2018-02-14T07:06:04.157Z,-4.90
2018-02-14T07:08:31.740Z,-4.90
2018-02-14T07:11:00.030Z,-4.90
2018-02-14T07:13:27.563Z,-5.00
2018-02-14T07:15:55.072Z,-5.00
2018-02-14T07:18:22.582Z,-5.00
2018-02-14T07:20:50.888Z,-4.90
2018-02-14T07:23:24.100Z,-4.90
2018-02-14T07:25:51.603Z,-4.80
2018-02-14T07:28:19.147Z,-4.70
2018-02-14T07:30:46.657Z,-4.80
2018-02-14T07:33:14.195Z,-4.80
2018-02-14T07:35:41.678Z,-4.80
2018-02-14T07:38:09.200Z,-4.80
2018-02-14T07:40:36.728Z,-4.80
2018-02-14T07:43:04.260Z,-4.80
2018-02-14T07:45:31.888Z,-4.80
2018-02-14T07:47:59.391Z,-4.60
2018-02-14T07:50:26.907Z,-4.50
2018-02-14T07:52:54.391Z,-4.60
2018-02-14T07:55:21.890Z,-4.50
2018-02-14T07:57:49.400Z,-4.40
2018-02-14T08:00:17.728Z,-4.30
2018-02-14T08:02:45.250Z,-4.30
2018-02-14T08:05:12.756Z,-4.10
2018-02-14T08:07:41.050Z,-4.10
2018-02-14T08:10:08.528Z,-4.10
2018-02-14T08:12:36.059Z,-3.80
2018-02-14T08:15:03.559Z,-3.80
2018-02-14T08:17:31.063Z,-3.80
2018-02-14T08:19:59.339Z,-3.50
2018-02-14T08:22:27.616Z,-3.50
2018-02-14T08:24:55.862Z,-3.50
2018-02-14T08:27:23.413Z,-3.50
2018-02-14T08:29:51.320Z,-3.30
2018-02-14T08:32:19.568Z,-3.30
2018-02-14T08:34:47.068Z,-3.30
2018-02-14T08:37:14.596Z,-3.10
2018-02-14T08:39:42.092Z,-3.00
2018-02-14T08:42:09.621Z,-3.00
2018-02-14T08:44:37.877Z,-2.90
2018-02-14T08:47:05.344Z,-2.90
2018-02-14T08:49:32.877Z,-2.80
2018-02-14T08:52:00.427Z,-2.70
2018-02-14T08:54:27.948Z,-2.60
2018-02-14T08:56:56.468Z,-2.50
2018-02-14T08:59:23.970Z,-2.50
2018-02-14T09:01:52.247Z,-2.00
2018-02-14T09:04:19.718Z,-2.00
2018-02-14T09:06:47.217Z,-1.70
2018-02-14T09:09:14.727Z,-1.40
2018-02-14T09:11:42.999Z,-1.20
2018-02-14T09:14:11.253Z,-1.00
2018-02-14T09:16:43.550Z,-1.00
2018-02-14T09:19:11.040Z,-0.70
2018-02-14T09:21:38.556Z,-0.60
2018-02-14T09:24:06.806Z,-0.50
2018-02-14T09:26:34.294Z,-0.50
2018-02-14T09:29:02.559Z,-0.20
2018-02-14T09:31:30.849Z,0.00
2018-02-14T09:33:59.104Z,0.10
2018-02-14T09:36:26.575Z,0.10
2018-02-14T09:38:54.074Z,0.30
2018-02-14T09:41:21.568Z,0.70
2018-02-14T09:43:49.068Z,0.70
2018-02-14T09:46:16.545Z,0.90
2018-02-14T09:48:44.080Z,1.10
2018-02-14T09:51:11.558Z,1.30
2018-02-14T09:53:39.051Z,1.40
2018-02-14T09:56:06.535Z,1.50
2018-02-14T09:58:34.035Z,1.60
2018-02-14T10:01:01.528Z,1.60
2018-02-14T10:03:29.022Z,1.60
2018-02-14T10:05:56.506Z,1.70
2018-02-14T10:08:25.117Z,1.90
2018-02-14T10:10:52.747Z,2.10
2018-02-14T10:13:22.013Z,2.20
2018-02-14T10:15:49.711Z,2.30
2018-02-14T10:18:17.230Z,2.20
2018-02-14T10:20:44.810Z,2.50
2018-02-14T10:23:13.725Z,2.50
2018-02-14T10:25:41.396Z,2.50
2018-02-14T10:28:09.747Z,2.40
2018-02-14T10:30:38.544Z,2.40
2018-02-14T10:33:06.177Z,2.80
2018-02-14T10:35:34.592Z,3.20
2018-02-14T10:38:02.182Z,3.10
2018-02-14T10:40:30.472Z,3.30
2018-02-14T10:42:58.033Z,3.30
2018-02-14T10:45:25.572Z,3.40
2018-02-14T10:47:53.074Z,3.60
2018-02-14T10:50:20.580Z,3.50
2018-02-14T10:52:48.115Z,3.50
2018-02-14T10:55:15.692Z,3.70
2018-02-14T10:57:43.259Z,3.50
2018-02-14T11:00:10.739Z,3.20
2018-02-14T11:02:43.980Z,3.20
2018-02-14T11:05:17.150Z,3.50
2018-02-14T11:07:44.694Z,3.70
2018-02-14T11:10:12.957Z,3.80
2018-02-14T11:12:40.458Z,3.80
2018-02-14T11:15:07.969Z,3.80
2018-02-14T11:17:35.472Z,3.50
2018-02-14T11:20:02.984Z,3.40
2018-02-14T11:22:30.563Z,3.50
2018-02-14T11:24:58.073Z,3.90
2018-02-14T11:27:25.564Z,4.00
2018-02-14T11:29:53.070Z,4.20
2018-02-14T11:32:20.609Z,4.30
2018-02-14T11:34:48.105Z,4.20
2018-02-14T11:37:15.614Z,4.00
2018-02-14T11:39:43.872Z,3.50
2018-02-14T11:42:11.330Z,3.50
2018-02-14T11:44:38.846Z,3.40
2018-02-14T11:47:06.340Z,3.50
2018-02-14T11:49:34.136Z,3.80
2018-02-14T11:52:01.624Z,4.00
2018-02-14T11:54:29.137Z,4.00
2018-02-14T11:56:56.633Z,4.20
2018-02-14T11:59:24.123Z,4.30
2018-02-14T12:01:51.629Z,4.40
2018-02-14T12:04:19.104Z,4.10
2018-02-14T12:06:46.607Z,4.10
2018-02-14T12:09:14.104Z,4.30
2018-02-14T12:11:41.628Z,4.40
2018-02-14T12:14:09.128Z,4.60
2018-02-14T12:16:36.605Z,4.50
2018-02-14T12:19:04.125Z,4.50
2018-02-14T12:21:31.627Z,4.10
2018-02-14T12:23:59.124Z,3.70
2018-02-14T12:26:27.376Z,4.00
2018-02-14T12:28:54.859Z,4.00
2018-02-14T12:31:23.131Z,4.30
2018-02-14T12:33:51.379Z,4.20
2018-02-14T12:36:18.870Z,4.20
2018-02-14T12:38:47.141Z,3.80
2018-02-14T12:41:16.193Z,4.00
2018-02-14T12:43:43.670Z,4.00
2018-02-14T12:46:11.138Z,3.80
2018-02-14T12:48:38.622Z,3.90
2018-02-14T12:51:06.397Z,4.00
2018-02-14T12:53:34.639Z,4.10
2018-02-14T12:56:02.104Z,4.10
2018-02-14T12:58:30.362Z,3.90
2018-02-14T13:00:57.858Z,4.00
2018-02-14T13:03:25.355Z,4.00
2018-02-14T13:05:52.851Z,4.00
2018-02-14T13:08:21.100Z,3.70
2018-02-14T13:10:48.622Z,3.70
2018-02-14T13:13:16.176Z,3.40
2018-02-14T13:15:43.676Z,3.50
2018-02-14T13:18:11.170Z,3.70
2018-02-14T13:20:39.396Z,4.10
2018-02-14T13:23:06.912Z,4.10
2018-02-14T13:25:35.157Z,3.80
2018-02-14T13:28:03.438Z,3.80
2018-02-14T13:30:31.737Z,3.90
2018-02-14T13:32:59.237Z,3.90
2018-02-14T13:35:26.762Z,3.80
2018-02-14T13:37:54.288Z,3.80
2018-02-14T13:40:22.575Z,3.60
2018-02-14T13:42:50.093Z,3.60
2018-02-14T13:45:17.565Z,3.40
2018-02-14T13:47:45.071Z,3.50
2018-02-14T13:50:12.581Z,3.80
2018-02-14T13:52:44.032Z,3.60
2018-02-14T13:55:12.374Z,4.80
2018-02-14T13:57:39.963Z,4.80
2018-02-14T14:00:08.317Z,4.80
2018-02-14T14:02:35.853Z,4.60
2018-02-14T14:05:03.382Z,4.50
2018-02-14T14:07:30.964Z,4.30
2018-02-14T14:09:59.280Z,4.60
2018-02-14T14:12:26.926Z,4.60
2018-02-14T14:14:54.427Z,5.40
2018-02-14T14:17:21.939Z,6.30
2018-02-14T14:19:49.435Z,6.00
2018-02-14T14:22:16.996Z,5.10
2018-02-14T14:24:44.468Z,5.00
2018-02-14T14:27:11.957Z,5.10
2018-02-14T14:29:39.446Z,5.70
2018-02-14T14:32:06.926Z,6.40
2018-02-14T14:34:34.428Z,6.00
2018-02-14T14:37:01.957Z,5.70
2018-02-14T14:39:29.482Z,4.90
2018-02-14T14:41:57.056Z,4.90
2018-02-14T14:44:24.587Z,5.00
2018-02-14T14:46:52.178Z,4.50
2018-02-14T14:49:19.712Z,4.50
2018-02-14T14:51:47.909Z,4.50
2018-02-14T14:54:15.476Z,4.70
2018-02-14T14:56:43.081Z,5.00
2018-02-14T14:59:10.642Z,4.70
2018-02-14T15:01:38.148Z,4.60
2018-02-14T15:04:05.639Z,4.20
2018-02-14T15:06:33.139Z,4.00
2018-02-14T15:09:00.645Z,3.70
2018-02-14T15:11:28.202Z,4.10
2018-02-14T15:13:55.766Z,4.70
2018-02-14T15:16:23.227Z,4.70
2018-02-14T15:18:51.508Z,4.30
2018-02-14T15:21:19.894Z,4.20
2018-02-14T15:23:47.404Z,3.60
2018-02-14T15:26:14.903Z,3.10
2018-02-14T15:28:43.176Z,2.90
2018-02-14T15:31:10.722Z,2.90
2018-02-14T15:33:38.190Z,3.10
2018-02-14T15:36:05.705Z,3.10
2018-02-14T15:38:33.183Z,3.50
2018-02-14T15:41:00.689Z,3.30
2018-02-14T15:43:28.196Z,3.40
2018-02-14T15:45:55.676Z,3.20
2018-02-14T15:48:23.172Z,2.80
2018-02-14T15:50:50.669Z,2.40
2018-02-14T15:53:18.169Z,2.40
2018-02-14T15:55:45.665Z,2.20
2018-02-14T15:58:13.178Z,2.10
2018-02-14T16:00:40.729Z,1.90
2018-02-14T16:03:08.229Z,1.80
2018-02-14T16:05:35.764Z,1.60
2018-02-14T16:08:03.738Z,1.60
2018-02-14T16:10:31.237Z,1.50
2018-02-14T16:12:58.731Z,1.40
2018-02-14T16:15:26.259Z,1.50
2018-02-14T16:17:54.780Z,1.30
2018-02-14T16:20:22.450Z,1.20
2018-02-14T16:22:50.153Z,1.20
2018-02-14T16:25:17.828Z,1.10
2018-02-14T16:27:46.395Z,1.00
2018-02-14T16:30:13.949Z,0.90
2018-02-14T16:32:42.514Z,0.80
2018-02-14T16:35:10.059Z,0.70
2018-02-14T16:37:37.897Z,0.70
2018-02-14T16:40:06.201Z,0.50
2018-02-14T16:42:33.714Z,0.50
2018-02-14T16:45:01.223Z,0.40
2018-02-14T16:47:28.736Z,0.40
2018-02-14T16:49:56.216Z,0.30
2018-02-14T16:52:24.545Z,0.20
2018-02-14T16:54:52.063Z,0.20
2018-02-14T16:57:19.631Z,0.20
2018-02-14T16:59:47.076Z,0.20
2018-02-14T17:02:14.602Z,0.10
2018-02-14T17:04:42.140Z,0.10
2018-02-14T17:07:10.130Z,0.00
2018-02-14T17:09:37.591Z,0.00
2018-02-14T17:12:05.893Z,-0.10
2018-02-14T17:14:33.400Z,-0.10
2018-02-14T17:17:00.912Z,0.00
2018-02-14T17:19:28.390Z,-0.10
2018-02-14T17:21:56.446Z,-0.20
2018-02-14T17:24:23.946Z,-0.20
2018-02-14T17:26:51.478Z,-0.20
2018-02-14T17:29:19.733Z,-0.40
2018-02-14T17:31:47.236Z,-0.40
2018-02-14T17:34:14.720Z,-0.30
2018-02-14T17:36:42.254Z,-0.30
2018-02-14T17:39:09.780Z,-0.30
2018-02-14T17:41:37.264Z,-0.20
2018-02-14T17:44:04.790Z,-0.30
2018-02-14T17:46:32.365Z,-0.20
2018-02-14T17:48:59.898Z,-0.30
2018-02-14T17:51:27.397Z,-0.30
2018-02-14T17:53:54.893Z,-0.20
2018-02-14T17:56:23.181Z,-0.20
2018-02-14T17:58:50.711Z,-0.20
2018-02-14T18:01:18.248Z,-0.10
2018-02-14T18:03:45.766Z,-0.10
2018-02-14T18:06:13.372Z,-0.10
2018-02-14T18:08:40.896Z,-0.10
2018-02-14T18:11:08.461Z,-0.10
2018-02-14T18:13:36.102Z,-0.20
2018-02-14T18:16:04.031Z,-0.20
2018-02-14T18:18:31.630Z,-0.30
2018-02-14T18:20:59.270Z,-0.40
2018-02-14T18:23:26.853Z,-0.30
2018-02-14T18:25:54.481Z,-0.40
2018-02-14T18:28:22.058Z,-0.40
2018-02-14T18:30:49.634Z,-0.50
2018-02-14T18:33:17.140Z,-0.50
2018-02-14T18:35:44.758Z,-0.50
2018-02-14T18:38:13.106Z,-0.50
2018-02-14T18:40:40.646Z,-0.50
2018-02-14T18:43:09.021Z,-0.40
2018-02-14T18:45:36.570Z,-0.50
2018-02-14T18:48:04.148Z,-0.40
2018-02-14T18:50:31.693Z,-0.40
2018-02-14T18:52:59.276Z,-0.40
2018-02-14T18:55:27.566Z,-0.40
2018-02-14T18:57:55.145Z,-0.30
2018-02-14T19:00:22.709Z,-0.40
2018-02-14T19:02:50.322Z,-0.30
2018-02-14T19:05:18.660Z,-0.30
2018-02-14T19:07:46.195Z,-0.30
2018-02-14T19:10:13.685Z,-0.30
2018-02-14T19:12:41.262Z,-0.40
2018-02-14T19:15:08.740Z,-0.60
2018-02-14T19:17:37.013Z,-0.50
2018-02-14T19:20:04.500Z,-0.50
2018-02-14T19:22:32.010Z,-0.50
2018-02-14T19:24:59.588Z,-0.60
2018-02-14T19:27:27.096Z,-0.50
2018-02-14T19:29:54.656Z,-0.50
2018-02-14T19:32:22.169Z,-0.50
2018-02-14T19:34:49.733Z,-0.50
2018-02-14T19:37:18.013Z,-0.50
2018-02-14T19:39:46.290Z,-0.40
2018-02-14T19:42:14.618Z,-0.40
2018-02-14T19:44:42.119Z,-0.40
2018-02-14T19:47:10.393Z,-0.30
2018-02-14T19:49:38.726Z,-0.30
2018-02-14T19:52:06.222Z,-0.30
2018-02-14T19:54:33.747Z,-0.40
2018-02-14T19:57:02.195Z,-0.30
2018-02-14T19:59:29.784Z,-0.40
2018-02-14T20:01:57.305Z,-0.50
2018-02-14T20:04:24.863Z,-0.40
2018-02-14T20:06:53.180Z,-0.40
2018-02-14T20:09:20.688Z,-0.40
2018-02-14T20:11:48.966Z,-0.40
2018-02-14T20:14:16.487Z,-0.40
2018-02-14T20:16:43.997Z,-0.20
2018-02-14T20:19:12.298Z,-0.20
2018-02-14T20:21:39.803Z,-0.30
2018-02-14T20:24:07.323Z,-0.20
2018-02-14T20:26:34.854Z,-0.20
2018-02-14T20:29:02.351Z,-0.20
2018-02-14T20:31:29.889Z,-0.30
2018-02-14T20:33:57.427Z,-0.40
2018-02-14T20:36:24.924Z,-0.30
2018-02-14T20:38:52.433Z,-0.40
2018-02-14T20:41:19.971Z,-0.50
2018-02-14T20:43:47.538Z,-0.50
2018-02-14T20:46:15.111Z,-0.50
2018-02-14T20:48:42.682Z,-0.50
2018-02-14T20:51:10.264Z,-0.50
2018-02-14T20:53:37.777Z,-0.40
2018-02-14T20:56:05.250Z,-0.40
2018-02-14T20:58:32.860Z,-0.40
2018-02-14T21:01:01.196Z,-0.50
2018-02-14T21:03:29.544Z,-0.40
2018-02-14T21:05:57.830Z,-0.40
2018-02-14T21:08:25.375Z,-0.40
2018-02-14T21:10:53.658Z,-0.30
2018-02-14T21:13:21.933Z,-0.40
2018-02-14T21:15:49.464Z,-0.40
2018-02-14T21:18:16.977Z,-0.40
2018-02-14T21:20:44.503Z,-0.30
2018-02-14T21:23:12.130Z,-0.40
2018-02-14T21:25:39.639Z,-0.30
2018-02-14T21:28:07.213Z,-0.40
2018-02-14T21:30:34.716Z,-0.50
2018-02-14T21:33:02.232Z,-0.40
2018-02-14T21:35:29.760Z,-0.40
2018-02-14T21:37:58.035Z,-0.50
2018-02-14T21:40:26.341Z,-0.50
2018-02-14T21:42:53.876Z,-0.50
2018-02-14T21:45:22.207Z,1.20
2018-02-14T21:47:49.724Z,-0.50
2018-02-14T21:50:17.278Z,-0.60
2018-02-14T21:52:44.780Z,-0.50
2018-02-14T21:55:12.280Z,-0.30
2018-02-14T21:57:40.557Z,0.90
2018-02-14T22:00:08.076Z,-0.40
2018-02-14T22:02:35.852Z,-0.40
2018-02-14T22:05:04.449Z,-0.50
2018-02-14T22:07:32.003Z,-0.50
2018-02-14T22:10:00.325Z,-0.60
2018-02-14T22:12:27.900Z,-0.60
2018-02-14T22:14:55.472Z,-0.70
2018-02-14T22:17:23.036Z,-0.60
2018-02-14T22:19:50.590Z,-0.60
2018-02-14T22:22:18.181Z,-0.70
2018-02-14T22:24:45.791Z,-0.70
2018-02-14T22:27:14.079Z,-0.70
2018-02-14T22:29:41.639Z,-0.70
2018-02-14T22:32:09.273Z,-0.70
2018-02-14T22:34:36.926Z,-0.70
2018-02-14T22:37:04.484Z,-0.70
2018-02-14T22:39:32.054Z,-0.70
2018-02-14T22:41:59.713Z,-0.80
2018-02-14T22:44:27.287Z,-0.90
2018-02-14T22:46:54.889Z,-0.80
2018-02-14T22:49:22.478Z,-0.80
2018-02-14T22:51:49.991Z,-0.90
2018-02-14T22:54:17.546Z,-0.80
2018-02-14T22:56:45.167Z,-0.80
2018-02-14T22:59:12.663Z,-0.70
2018-02-14T23:01:40.217Z,-0.90
2018-02-14T23:04:08.015Z,-0.90
2018-02-14T23:06:35.566Z,-0.90
2018-02-14T23:09:03.092Z,-0.90
2018-02-14T23:11:30.914Z,-0.80
2018-02-14T23:13:58.779Z,-0.80
2018-02-14T23:16:26.272Z,-0.80
2018-02-14T23:18:53.828Z,-0.80
2018-02-14T23:21:21.761Z,-0.80
2018-02-14T23:23:49.639Z,-0.80
2018-02-14T23:26:17.459Z,-0.80
2018-02-14T23:28:44.984Z,-0.80
2018-02-14T23:31:12.532Z,-0.80
2018-02-14T23:33:40.023Z,-0.80
2018-02-14T23:36:07.522Z,-0.80
2018-02-14T23:38:35.835Z,-0.80
2018-02-14T23:41:03.333Z,-0.90
2018-02-14T23:43:30.898Z,-0.80
2018-02-14T23:45:58.404Z,-0.80
2018-02-14T23:48:25.939Z,-0.80
2018-02-14T23:50:54.239Z,-0.70
2018-02-14T23:53:21.723Z,-0.90
2018-02-14T23:55:49.240Z,-0.80
2018-02-14T23:58:16.716Z,-0.80
